createdAt,value
2022-09-01T00:00:14.482Z,19.72
2022-09-01T00:03:01.142Z,19.73
2022-09-01T00:05:32.329Z,19.73
2022-09-01T00:08:02.032Z,19.73
2022-09-01T00:10:29.406Z,19.71
2022-09-01T00:12:56.763Z,19.69
2022-09-01T00:15:25.163Z,19.67
2022-09-01T00:17:52.446Z,19.65
2022-09-01T00:20:20.949Z,19.63
2022-09-01T00:22:48.932Z,19.61
2022-09-01T00:25:19.525Z,19.59
2022-09-01T00:27:49.076Z,19.57
2022-09-01T00:30:16.670Z,19.55
2022-09-01T00:32:46.384Z,19.54
2022-09-01T00:35:18.917Z,19.52
2022-09-01T00:37:46.469Z,19.49
2022-09-01T00:40:16.748Z,19.48
2022-09-01T00:42:44.589Z,19.46
2022-09-01T00:45:13.661Z,19.45
2022-09-01T00:47:41.772Z,19.44
2022-09-01T00:50:12.731Z,19.43
2022-09-01T00:52:50.506Z,19.40
2022-09-01T00:55:25.648Z,19.39
2022-09-01T00:57:53.311Z,19.38
2022-09-01T01:00:28.682Z,19.38
2022-09-01T01:02:57.064Z,19.37
2022-09-01T01:05:32.620Z,19.36
2022-09-01T01:08:02.191Z,19.34
2022-09-01T01:10:32.560Z,19.33
2022-09-01T01:13:08.395Z,19.31
2022-09-01T01:15:36.552Z,19.30
2022-09-01T01:18:04.308Z,19.27
2022-09-01T01:20:52.925Z,19.23
2022-09-01T01:23:48.369Z,19.22
2022-09-01T01:26:15.824Z,19.19
2022-09-01T01:28:44.805Z,19.11
2022-09-01T01:31:22.535Z,19.10
2022-09-01T01:33:53.727Z,19.07
2022-09-01T01:36:33.381Z,19.07
2022-09-01T01:39:11.889Z,19.04
2022-09-01T01:41:43.791Z,18.98
2022-09-01T01:44:17.924Z,18.97
2022-09-01T01:46:52.288Z,18.94
2022-09-01T01:49:24.362Z,18.92
2022-09-01T01:51:55.570Z,18.87
2022-09-01T01:54:26.627Z,18.81
2022-09-01T01:56:55.221Z,18.77
2022-09-01T01:59:24.350Z,18.72
2022-09-01T02:01:52.712Z,18.69
2022-09-01T02:04:21.037Z,18.63
2022-09-01T02:06:49.764Z,18.59
2022-09-01T02:09:20.302Z,18.52
2022-09-01T02:11:48.850Z,18.51
2022-09-01T02:14:20.086Z,18.49
2022-09-01T02:16:47.697Z,18.46
2022-09-01T02:19:19.163Z,18.38
2022-09-01T02:21:55.440Z,18.38
2022-09-01T02:24:28.546Z,18.37
2022-09-01T02:26:58.835Z,18.35
2022-09-01T02:29:28.352Z,18.31
2022-09-01T02:31:56.968Z,18.28
2022-09-01T02:34:28.588Z,18.26
2022-09-01T02:36:57.025Z,18.22
2022-09-01T02:39:33.077Z,18.20
2022-09-01T02:42:04.156Z,18.21
2022-09-01T02:44:32.293Z,18.18
2022-09-01T02:47:01.263Z,18.10
2022-09-01T02:49:29.412Z,18.09
2022-09-01T02:52:00.816Z,18.09
2022-09-01T02:54:30.437Z,18.07
2022-09-01T02:56:57.939Z,18.03
2022-09-01T02:59:28.500Z,18.01
2022-09-01T03:01:59.394Z,17.97
2022-09-01T03:04:26.862Z,17.92
2022-09-01T03:06:58.386Z,17.89
2022-09-01T03:09:25.868Z,17.88
2022-09-01T03:11:54.135Z,17.89
2022-09-01T03:14:23.794Z,17.89
2022-09-01T03:16:51.959Z,17.87
2022-09-01T03:19:20.042Z,17.87
2022-09-01T03:21:48.330Z,17.88
2022-09-01T03:24:18.714Z,17.86
2022-09-01T03:26:49.946Z,17.85
2022-09-01T03:29:18.992Z,17.87
2022-09-01T03:31:47.072Z,17.88
2022-09-01T03:34:21.289Z,17.87
2022-09-01T03:36:51.148Z,17.85
2022-09-01T03:39:26.630Z,17.82
2022-09-01T03:41:54.903Z,17.81
2022-09-01T03:44:22.298Z,17.80
2022-09-01T03:46:50.237Z,17.79
2022-09-01T03:49:24.652Z,17.78
2022-09-01T03:51:56.036Z,17.78
2022-09-01T03:54:27.518Z,17.77
2022-09-01T03:56:55.010Z,17.79
2022-09-01T03:59:24.790Z,17.80
2022-09-01T04:01:52.490Z,17.79
2022-09-01T04:04:20.534Z,17.79
2022-09-01T04:06:48.734Z,17.73
2022-09-01T04:09:16.310Z,17.82
2022-09-01T04:11:48.044Z,17.81
2022-09-01T04:14:16.759Z,17.79
2022-09-01T04:17:04.423Z,17.81
2022-09-01T04:19:38.950Z,17.83
2022-09-01T04:22:07.583Z,17.82
2022-09-01T04:24:45.295Z,17.78
2022-09-01T04:27:14.420Z,17.79
2022-09-01T04:29:42.737Z,17.79
2022-09-01T04:32:15.396Z,17.81
2022-09-01T04:34:45.378Z,17.84
2022-09-01T04:37:21.620Z,17.89
2022-09-01T04:39:59.002Z,17.91
2022-09-01T04:42:31.416Z,17.94
2022-09-01T04:45:05.095Z,17.95
2022-09-01T04:47:41.760Z,17.95
2022-09-01T04:50:14.384Z,17.93
2022-09-01T04:52:47.283Z,17.95
2022-09-01T04:55:29.716Z,17.92
2022-09-01T04:58:03.162Z,17.89
2022-09-01T05:00:33.106Z,17.83
2022-09-01T05:03:04.063Z,17.87
2022-09-01T05:05:50.439Z,17.87
2022-09-01T05:08:23.370Z,17.88
2022-09-01T05:10:54.608Z,17.89
2022-09-01T05:13:33.501Z,17.89
2022-09-01T05:16:12.374Z,17.86
2022-09-01T05:18:47.235Z,17.86
2022-09-01T05:21:21.718Z,17.84
2022-09-01T05:23:51.297Z,17.84
2022-09-01T05:26:26.151Z,17.85
2022-09-01T05:29:00.861Z,17.91
2022-09-01T05:31:34.363Z,17.99
2022-09-01T05:34:02.894Z,18.10
2022-09-01T05:36:33.975Z,18.19
2022-09-01T05:39:05.897Z,18.29
2022-09-01T05:41:35.206Z,18.32
2022-09-01T05:44:06.657Z,18.38
2022-09-01T05:46:37.887Z,18.45
2022-09-01T05:49:13.763Z,18.48
2022-09-01T05:51:52.699Z,18.57
2022-09-01T05:54:25.633Z,18.64
2022-09-01T05:57:08.126Z,18.70
2022-09-01T05:59:53.269Z,18.77
2022-09-01T06:02:23.638Z,18.82
2022-09-01T06:04:56.861Z,18.88
2022-09-01T06:07:28.142Z,18.93
2022-09-01T06:09:56.645Z,18.94
2022-09-01T06:12:25.064Z,18.89
2022-09-01T06:14:54.566Z,18.89
2022-09-01T06:17:25.532Z,18.93
2022-09-01T06:19:58.136Z,18.94
2022-09-01T06:22:28.388Z,19.02
2022-09-01T06:25:01.122Z,19.21
2022-09-01T06:27:42.201Z,19.46
2022-09-01T06:30:23.510Z,19.65
2022-09-01T06:33:01.903Z,19.79
2022-09-01T06:35:30.059Z,19.92
2022-09-01T06:37:58.336Z,20.09
2022-09-01T06:40:42.454Z,20.18
2022-09-01T06:43:13.731Z,20.23
2022-09-01T06:45:54.157Z,20.26
2022-09-01T06:48:23.277Z,20.28
2022-09-01T06:53:44.919Z,20.26
2022-09-01T06:56:16.371Z,20.43
2022-09-01T06:58:48.859Z,20.50
2022-09-01T07:01:19.247Z,20.52
2022-09-01T07:03:51.659Z,20.57
2022-09-01T07:13:06.877Z,20.69
2022-09-01T07:18:30.551Z,20.74
2022-09-01T07:21:05.461Z,20.76
2022-09-01T07:26:28.248Z,20.91
2022-09-01T07:29:01.292Z,21.04
2022-09-01T07:34:41.928Z,21.09
2022-09-01T07:42:31.191Z,20.65
2022-09-01T07:43:24.103Z,21.31
2022-09-01T07:47:19.619Z,21.29
2022-09-01T07:52:35.557Z,21.47
2022-09-01T07:55:04.257Z,21.49
2022-09-01T07:57:34.394Z,21.47
2022-09-01T08:00:06.243Z,21.56
2022-09-01T08:02:46.722Z,21.59
2022-09-01T08:05:22.337Z,21.58
2022-09-01T08:07:52.752Z,21.50
2022-09-01T08:10:33.586Z,21.45
2022-09-01T08:13:02.095Z,21.38
2022-09-01T08:18:51.338Z,21.43
2022-09-01T08:21:28.923Z,21.46
2022-09-01T08:24:03.226Z,21.48
2022-09-01T08:26:34.033Z,21.54
2022-09-01T08:29:03.952Z,21.51
2022-09-01T08:31:37.930Z,21.45
2022-09-01T08:34:05.762Z,21.46
2022-09-01T08:36:35.427Z,21.49
2022-09-01T08:39:03.628Z,21.57
2022-09-01T08:41:52.159Z,21.60
2022-09-01T08:44:28.877Z,21.59
2022-09-01T08:47:13.687Z,21.59
2022-09-01T08:49:46.590Z,21.55
2022-09-01T08:52:50.084Z,21.57
2022-09-01T08:55:38.303Z,21.55
2022-09-01T08:58:06.673Z,21.56
2022-09-01T09:01:00.765Z,21.57
2022-09-01T09:03:59.395Z,21.59
2022-09-01T09:06:41.406Z,21.62
2022-09-01T09:09:10.004Z,21.74
2022-09-01T09:12:16.413Z,21.86
2022-09-01T09:15:32.975Z,21.96
2022-09-01T09:18:38.438Z,21.97
2022-09-01T09:21:20.941Z,21.99
2022-09-01T09:24:10.416Z,21.98
2022-09-01T09:26:45.027Z,22.02
2022-09-01T09:29:13.006Z,22.14
2022-09-01T09:31:50.045Z,22.23
2022-09-01T09:34:35.902Z,22.32
2022-09-01T09:37:22.135Z,22.37
2022-09-01T09:40:21.123Z,22.53
2022-09-01T09:42:54.734Z,22.78
2022-09-01T09:45:34.008Z,23.00
2022-09-01T09:48:30.319Z,23.18
2022-09-01T09:51:20.745Z,23.33
2022-09-01T09:53:50.075Z,23.46
2022-09-01T09:56:24.064Z,23.57
2022-09-01T09:58:52.940Z,23.70
2022-09-01T10:01:24.150Z,23.66
2022-09-01T10:04:01.249Z,23.56
2022-09-01T10:06:50.322Z,23.43
2022-09-01T10:09:24.378Z,23.38
2022-09-01T10:11:55.631Z,23.43
2022-09-01T10:14:53.336Z,23.47
2022-09-01T10:17:30.486Z,23.41
2022-09-01T10:20:07.690Z,23.28
2022-09-01T10:22:50.736Z,23.29
2022-09-01T10:25:24.232Z,23.39
2022-09-01T10:28:13.173Z,23.54
2022-09-01T10:30:45.578Z,23.60
2022-09-01T10:33:20.835Z,23.66
2022-09-01T10:35:53.183Z,23.57
2022-09-01T10:38:28.828Z,23.52
2022-09-01T10:41:09.008Z,23.60
2022-09-01T10:43:45.375Z,23.58
2022-09-01T10:46:42.173Z,23.59
2022-09-01T10:49:29.659Z,23.69
2022-09-01T10:52:03.243Z,23.75
2022-09-01T10:54:51.079Z,23.73
2022-09-01T10:57:30.620Z,23.77
2022-09-01T11:00:38.697Z,23.81
2022-09-01T11:06:12.641Z,23.80
2022-09-01T11:08:58.476Z,23.75
2022-09-01T11:11:49.303Z,23.69
2022-09-01T11:14:26.411Z,23.81
2022-09-01T11:17:20.721Z,23.89
2022-09-01T11:20:00.410Z,23.96
2022-09-01T11:22:44.774Z,23.90
2022-09-01T11:25:38.702Z,23.91
2022-09-01T11:28:18.151Z,23.87
2022-09-01T11:31:05.888Z,23.87
2022-09-01T11:33:56.230Z,23.84
2022-09-01T11:36:29.576Z,23.84
2022-09-01T11:39:22.783Z,23.83
2022-09-01T11:42:04.725Z,23.85
2022-09-01T11:44:51.151Z,23.89
2022-09-01T11:47:40.088Z,23.94
2022-09-01T11:50:17.402Z,24.00
2022-09-01T11:53:07.973Z,24.04
2022-09-01T11:56:04.508Z,24.04
2022-09-01T11:58:38.792Z,24.03
2022-09-01T12:01:31.202Z,24.06
2022-09-01T12:04:19.677Z,24.10
2022-09-01T12:06:58.259Z,24.09
2022-09-01T12:09:42.826Z,24.01
2022-09-01T12:12:49.597Z,24.06
2022-09-01T12:15:26.952Z,24.09
2022-09-01T12:18:18.816Z,24.14
2022-09-01T12:23:39.942Z,24.41
2022-09-01T12:26:14.620Z,24.46
2022-09-01T12:28:42.614Z,24.57
2022-09-01T12:31:16.949Z,24.58
2022-09-01T12:33:45.473Z,24.64
2022-09-01T12:36:24.377Z,24.77
2022-09-01T12:38:55.574Z,24.75
2022-09-01T12:41:41.534Z,24.77
2022-09-01T12:44:39.788Z,24.78
2022-09-01T12:47:14.293Z,24.78
2022-09-01T12:49:50.789Z,24.63
2022-09-01T12:52:36.647Z,24.63
2022-09-01T12:55:05.880Z,24.67
2022-09-01T12:57:39.995Z,24.63
2022-09-01T13:00:21.844Z,24.48
2022-09-01T13:02:52.724Z,24.39
2022-09-01T13:05:41.709Z,24.31
2022-09-01T13:08:10.519Z,24.27
2022-09-01T13:10:48.866Z,24.29
2022-09-01T13:13:17.501Z,24.39
2022-09-01T13:15:51.255Z,24.58
2022-09-01T13:18:22.193Z,24.76
2022-09-01T13:20:51.152Z,24.83
2022-09-01T13:23:20.480Z,24.74
2022-09-01T13:25:48.534Z,24.70
2022-09-01T13:28:17.623Z,24.63
2022-09-01T13:31:28.327Z,24.60
2022-09-01T13:36:44.457Z,24.80
2022-09-01T13:39:15.449Z,24.72
2022-09-01T13:41:43.306Z,24.56
2022-09-01T13:44:11.142Z,24.45
2022-09-01T13:46:59.093Z,24.36
2022-09-01T13:49:43.517Z,24.28
2022-09-01T13:52:12.672Z,24.34
2022-09-01T13:54:40.159Z,24.33
2022-09-01T13:57:07.608Z,24.27
2022-09-01T13:59:35.050Z,24.18
2022-09-01T14:02:02.898Z,24.14
2022-09-01T14:04:30.457Z,24.06
2022-09-01T14:06:59.203Z,24.12
2022-09-01T14:09:26.738Z,24.04
2022-09-01T14:11:55.107Z,23.96
2022-09-01T14:14:23.101Z,23.92
2022-09-01T14:16:50.502Z,23.86
2022-09-01T14:19:18.520Z,23.82
2022-09-01T14:21:46.984Z,23.85
2022-09-01T14:24:18.576Z,23.81
2022-09-01T14:26:47.430Z,23.74
2022-09-01T14:29:16.193Z,23.68
2022-09-01T14:31:44.621Z,23.62
2022-09-01T14:34:12.595Z,23.57
2022-09-01T14:36:45.036Z,23.51
2022-09-01T14:39:15.763Z,23.54
2022-09-01T14:41:43.515Z,23.50
2022-09-01T14:44:11.099Z,23.46
2022-09-01T14:46:39.389Z,23.43
2022-09-01T14:49:07.508Z,23.42
2022-09-01T14:54:26.007Z,23.37
2022-09-01T14:59:41.475Z,23.31
2022-09-01T15:02:10.118Z,23.27
2022-09-01T15:04:37.631Z,23.29
2022-09-01T15:07:05.987Z,23.28
2022-09-01T15:09:33.945Z,23.28
2022-09-01T15:12:01.585Z,23.21
2022-09-01T15:14:29.227Z,23.17
2022-09-01T15:16:57.127Z,23.15
2022-09-01T15:19:29.573Z,23.14
2022-09-01T15:22:00.680Z,23.13
2022-09-01T15:24:28.177Z,23.02
2022-09-01T15:26:56.255Z,22.92
2022-09-01T15:29:24.170Z,22.86
2022-09-01T15:31:53.460Z,22.78
2022-09-01T15:34:20.803Z,22.74
2022-09-01T15:36:48.059Z,22.69
2022-09-01T15:39:15.573Z,22.66
2022-09-01T15:41:43.888Z,22.61
2022-09-01T15:44:11.291Z,22.59
2022-09-01T15:46:40.176Z,22.54
2022-09-01T15:49:10.270Z,22.49
2022-09-01T15:51:41.762Z,22.44
2022-09-01T15:54:18.962Z,22.43
2022-09-01T15:56:47.522Z,22.41
2022-09-01T15:59:15.716Z,22.38
2022-09-01T16:01:45.683Z,22.33
2022-09-01T16:04:19.944Z,22.29
2022-09-01T16:06:50.653Z,22.29
2022-09-01T16:09:20.806Z,22.29
2022-09-01T16:11:48.295Z,22.20
2022-09-01T16:14:15.981Z,22.15
2022-09-01T16:17:04.475Z,22.12
2022-09-01T16:19:53.748Z,22.10
2022-09-01T16:22:57.629Z,22.08
2022-09-01T16:25:31.697Z,22.03
2022-09-01T16:28:10.736Z,21.99
2022-09-01T16:30:40.281Z,21.92
2022-09-01T16:33:19.536Z,21.88
2022-09-01T16:36:28.484Z,21.84
2022-09-01T16:39:26.252Z,21.80
2022-09-01T16:42:48.365Z,21.76
2022-09-01T16:45:48.899Z,21.72
2022-09-01T16:48:46.759Z,21.66
2022-09-01T16:51:35.817Z,21.64
2022-09-01T16:54:54.142Z,21.61
2022-09-01T16:58:04.462Z,21.53
2022-09-01T17:01:38.982Z,21.47
2022-09-01T17:04:59.895Z,21.44
2022-09-01T17:07:37.758Z,21.40
2022-09-01T17:10:33.328Z,21.38
2022-09-01T17:13:48.965Z,21.36
2022-09-01T17:16:41.796Z,21.33
2022-09-01T17:19:17.184Z,21.30
2022-09-01T17:22:08.796Z,21.31
2022-09-01T17:24:43.930Z,21.27
2022-09-01T17:27:19.821Z,21.23
2022-09-01T17:29:53.473Z,21.21
2022-09-01T17:33:17.320Z,21.17
2022-09-01T17:36:18.269Z,21.14
2022-09-01T17:39:48.908Z,21.11
2022-09-01T17:43:29.009Z,21.10
2022-09-01T17:46:42.325Z,21.07
2022-09-01T17:50:05.483Z,21.02
2022-09-01T17:53:10.547Z,21.01
2022-09-01T17:55:51.160Z,20.98
2022-09-01T17:58:47.935Z,20.94
2022-09-01T18:01:27.960Z,20.93
2022-09-01T18:04:47.525Z,20.91
2022-09-01T18:07:31.542Z,20.86
2022-09-01T18:10:02.089Z,20.83
2022-09-01T18:12:35.278Z,20.78
2022-09-01T18:15:14.186Z,20.75
2022-09-01T18:17:49.576Z,20.73
2022-09-01T18:20:25.301Z,20.70
2022-09-01T18:22:58.625Z,20.67
2022-09-01T18:25:48.048Z,20.65
2022-09-01T18:28:16.448Z,20.64
2022-09-01T18:31:30.521Z,20.60
2022-09-01T18:34:10.987Z,20.57
2022-09-01T18:37:14.114Z,20.53
2022-09-01T18:40:00.008Z,20.49
2022-09-01T18:43:26.078Z,20.44
2022-09-01T18:46:03.733Z,20.40
2022-09-01T18:48:49.694Z,20.36
2022-09-01T18:51:29.599Z,20.33
2022-09-01T18:54:28.797Z,20.29
2022-09-01T18:57:03.540Z,20.26
2022-09-01T18:59:45.544Z,20.25
2022-09-01T19:02:37.944Z,20.21
2022-09-01T19:05:20.148Z,20.17
2022-09-01T19:08:08.079Z,20.14
2022-09-01T19:10:47.480Z,20.12
2022-09-01T19:13:55.499Z,20.08
2022-09-01T19:16:32.854Z,20.07
2022-09-01T19:19:24.765Z,20.07
2022-09-01T19:21:55.414Z,20.05
2022-09-01T19:24:44.651Z,20.03
2022-09-01T19:27:34.596Z,20.00
2022-09-01T19:30:06.348Z,19.96
2022-09-01T19:32:35.760Z,19.95
2022-09-01T19:35:13.223Z,19.94
2022-09-01T19:37:43.653Z,19.93
2022-09-01T19:40:11.989Z,19.93
2022-09-01T19:42:43.897Z,19.90
2022-09-01T19:45:40.709Z,19.90
2022-09-01T19:48:23.742Z,19.88
2022-09-01T19:51:02.564Z,19.88
2022-09-01T19:53:50.174Z,19.87
2022-09-01T19:56:31.387Z,19.84
2022-09-01T20:00:06.562Z,19.79
2022-09-01T20:02:54.670Z,19.78
2022-09-01T20:05:31.849Z,19.75
2022-09-01T20:08:11.773Z,19.71
2022-09-01T20:11:00.886Z,19.68
2022-09-01T20:14:12.110Z,19.65
2022-09-01T20:16:50.369Z,19.62
2022-09-01T20:19:41.636Z,19.59
2022-09-01T20:22:31.324Z,19.55
2022-09-01T20:25:17.612Z,19.52
2022-09-01T20:28:12.878Z,19.50
2022-09-01T20:30:50.682Z,19.47
2022-09-01T20:34:10.624Z,19.47
2022-09-01T20:37:06.248Z,19.44
2022-09-01T20:39:55.889Z,19.42
2022-09-01T20:42:43.864Z,19.39
2022-09-01T20:45:22.773Z,19.37
2022-09-01T20:48:02.690Z,19.37
2022-09-01T20:50:43.163Z,19.36
2022-09-01T20:53:32.285Z,19.34
2022-09-01T20:56:19.377Z,19.29
2022-09-01T20:59:00.931Z,19.24
2022-09-01T21:01:42.720Z,19.22
2022-09-01T21:04:19.848Z,19.18
2022-09-01T21:08:07.936Z,19.14
2022-09-01T21:10:58.660Z,19.12
2022-09-01T21:13:45.398Z,19.06
2022-09-01T21:16:31.253Z,19.04
2022-09-01T21:19:20.700Z,19.01
2022-09-01T21:22:14.485Z,18.98
2022-09-01T21:24:44.086Z,18.95
2022-09-01T21:27:24.623Z,18.91
2022-09-01T21:30:05.695Z,18.90
2022-09-01T21:32:34.504Z,18.86
2022-09-01T21:35:06.934Z,18.84
2022-09-01T21:37:34.551Z,18.81
2022-09-01T21:40:02.351Z,18.79
2022-09-01T21:42:36.127Z,18.77
2022-09-01T21:45:06.559Z,18.76
2022-09-01T21:47:34.246Z,18.73
2022-09-01T21:50:01.816Z,18.72
2022-09-01T21:52:41.688Z,18.73
2022-09-01T21:55:11.558Z,18.68
2022-09-01T21:57:40.304Z,18.67
2022-09-01T22:00:17.477Z,18.66
2022-09-01T22:02:47.345Z,18.65
2022-09-01T22:05:16.587Z,18.64
2022-09-01T22:07:46.844Z,18.64
2022-09-01T22:10:19.189Z,18.63
2022-09-01T22:12:50.397Z,18.60
2022-09-01T22:15:22.398Z,18.59
2022-09-01T22:17:52.942Z,18.58
2022-09-01T22:20:23.560Z,18.53
2022-09-01T22:22:54.952Z,18.49
2022-09-01T22:25:24.111Z,18.47
2022-09-01T22:27:52.894Z,18.42
2022-09-01T22:30:21.783Z,18.40
2022-09-01T22:32:51.145Z,18.37
2022-09-01T22:35:20.944Z,18.34
2022-09-01T22:37:49.848Z,18.34
2022-09-01T22:40:18.894Z,18.30
2022-09-01T22:42:47.753Z,18.29
2022-09-01T22:45:16.583Z,18.26
2022-09-01T22:47:45.232Z,18.24
2022-09-01T22:50:14.179Z,18.19
2022-09-01T22:52:43.964Z,18.16
2022-09-01T22:55:13.891Z,18.14
2022-09-01T22:59:24.835Z,18.12
2022-09-01T23:01:52.704Z,18.04
2022-09-01T23:04:20.898Z,18.02
2022-09-01T23:06:53.563Z,18.01
2022-09-01T23:09:21.265Z,18.01
2022-09-01T23:11:50.109Z,17.96
2022-09-01T23:14:18.191Z,17.93
2022-09-01T23:16:46.747Z,17.92
2022-09-01T23:19:20.606Z,17.89
2022-09-01T23:21:48.442Z,17.88
2022-09-01T23:24:15.978Z,17.86
2022-09-01T23:26:47.910Z,17.85
2022-09-01T23:29:15.952Z,17.84
2022-09-01T23:31:43.822Z,17.83
2022-09-01T23:34:12.824Z,17.83
2022-09-01T23:36:42.011Z,17.81
2022-09-01T23:39:09.380Z,17.79
2022-09-01T23:41:37.501Z,17.77
2022-09-01T23:44:10.624Z,17.75
2022-09-01T23:46:44.626Z,17.74
2022-09-01T23:49:14.121Z,17.71
2022-09-01T23:51:41.783Z,17.70
2022-09-01T23:54:10.047Z,17.67
2022-09-01T23:56:37.954Z,17.66
2022-09-01T23:59:06.680Z,17.63
